Glen Oaks, New York
Current Conditions -  °F | °C
As of 3:51 PM on Saturday 25 Oct 2014 (Local Time) from KJFK Reporting Station
Few Clouds Few Clouds  
Wind Chill: 68°   Ceiling: Unl
Heat Index: 68°   Visibility: 10mi
Dew Point: 43°   Wind: 15mph
Humidity: 40%   Direction: 240°WSW
Pressure: 29.69"   Gusts: NA
Location:  40.75°N, 73.71°W
Report Text: KJFK 251951Z 24013KT 10SM FEW260 20/06 A2969 RMK AO2 PRESFR SLP054 T02000061
Loading
Personal Weather Stations






























Interactive Weather Map New forecast layout! Learn more

10-Day Weather Forecast

Advertisements
Track Severe Weather on mobile